createdAt,value
2017-03-06T00:00:08.717Z,22.97
2017-03-06T00:01:18.662Z,23.07
2017-03-06T00:02:29.397Z,23.07
2017-03-06T00:03:40.451Z,23.07
2017-03-06T00:04:50.408Z,23.07
2017-03-06T00:06:01.154Z,23.07
2017-03-06T00:07:11.500Z,23.07
2017-03-06T00:08:21.855Z,23.07
2017-03-06T00:09:32.480Z,23.07
2017-03-06T00:10:43.241Z,23.07
2017-03-06T00:11:52.787Z,23.07
2017-03-06T00:13:03.142Z,23.07
2017-03-06T00:14:13.495Z,22.88
2017-03-06T00:15:23.683Z,23.06
2017-03-06T00:16:33.644Z,23.07
2017-03-06T00:17:44.000Z,23.16
2017-03-06T00:18:55.036Z,22.97
2017-03-06T00:20:05.763Z,22.97
2017-03-06T00:21:15.974Z,22.88
2017-03-06T00:22:25.551Z,23.16
2017-03-06T00:23:35.504Z,23.07
2017-03-06T00:24:45.857Z,22.96
2017-03-06T00:25:55.446Z,22.97
2017-03-06T00:27:05.706Z,23.15
2017-03-06T00:28:16.044Z,23.07
2017-03-06T00:29:26.376Z,22.97
2017-03-06T00:30:36.758Z,23.07
2017-03-06T00:31:47.510Z,22.97
2017-03-06T00:32:58.481Z,23.06
2017-03-06T00:34:08.419Z,22.86
2017-03-06T00:35:18.784Z,22.97
2017-03-06T00:36:29.510Z,22.97
2017-03-06T00:37:39.976Z,23.07
2017-03-06T00:38:50.188Z,22.97
2017-03-06T00:40:00.931Z,22.88
2017-03-06T00:41:11.292Z,22.96
2017-03-06T00:42:21.651Z,22.97
2017-03-06T00:43:32.381Z,22.88
2017-03-06T00:44:42.986Z,22.97
2017-03-06T00:45:53.314Z,23.07
2017-03-06T00:47:03.276Z,22.96
2017-03-06T00:48:13.228Z,23.07
2017-03-06T00:49:23.978Z,23.07
2017-03-06T00:50:34.552Z,23.07
2017-03-06T00:51:45.298Z,22.97
2017-03-06T00:52:55.238Z,22.88
2017-03-06T00:54:05.578Z,22.97
2017-03-06T00:55:15.927Z,22.97
2017-03-06T00:56:26.124Z,22.96
2017-03-06T00:57:36.102Z,22.78
2017-03-06T00:58:46.844Z,22.78
2017-03-06T00:59:57.165Z,22.88
2017-03-06T01:01:07.494Z,22.88
2017-03-06T01:02:17.705Z,22.78
2017-03-06T01:03:28.048Z,23.07
2017-03-06T01:04:37.997Z,22.86
2017-03-06T01:05:47.543Z,22.88
2017-03-06T01:06:57.488Z,22.88
2017-03-06T01:08:08.483Z,22.97
2017-03-06T01:09:18.022Z,23.16
2017-03-06T01:10:28.342Z,22.88
2017-03-06T01:11:39.089Z,22.88
2017-03-06T01:12:49.040Z,23.07
2017-03-06T01:13:59.636Z,23.06
2017-03-06T01:15:10.002Z,22.97
2017-03-06T01:16:20.352Z,22.96
2017-03-06T01:17:30.700Z,22.97
2017-03-06T01:18:41.434Z,22.97
2017-03-06T01:19:52.469Z,22.88
2017-03-06T01:21:03.183Z,22.97
2017-03-06T01:22:13.519Z,22.97
2017-03-06T01:23:24.250Z,22.78
2017-03-06T01:24:35.004Z,22.88
2017-03-06T01:25:44.812Z,22.78
2017-03-06T01:26:55.155Z,22.97
2017-03-06T01:28:05.669Z,22.97
2017-03-06T01:29:15.613Z,22.88
2017-03-06T01:30:26.341Z,22.86
2017-03-06T01:31:37.343Z,22.97
2017-03-06T01:32:47.691Z,22.78
2017-03-06T01:33:57.258Z,22.78
2017-03-06T01:35:07.187Z,22.88
2017-03-06T01:36:17.932Z,22.97
2017-03-06T01:37:28.508Z,22.77
2017-03-06T01:38:38.835Z,22.77
2017-03-06T01:39:49.170Z,22.86
2017-03-06T01:40:59.516Z,22.96
2017-03-06T01:42:09.877Z,22.96
2017-03-06T01:43:20.099Z,22.77
2017-03-06T01:44:30.498Z,22.86
2017-03-06T01:45:40.863Z,22.86
2017-03-06T01:46:50.828Z,22.77
2017-03-06T01:48:00.754Z,22.86
2017-03-06T01:49:11.021Z,22.86
2017-03-06T01:50:21.345Z,22.86
2017-03-06T01:51:31.298Z,22.86
2017-03-06T01:52:41.263Z,22.86
2017-03-06T01:53:52.019Z,22.86
2017-03-06T01:55:02.281Z,22.67
2017-03-06T01:56:12.239Z,22.86
2017-03-06T01:57:22.611Z,22.77
2017-03-06T01:58:33.347Z,22.77
2017-03-06T01:59:43.293Z,22.86
2017-03-06T02:00:54.297Z,22.86
2017-03-06T02:02:05.036Z,22.77
2017-03-06T02:03:15.388Z,22.67
2017-03-06T02:04:25.327Z,22.86
2017-03-06T02:05:35.673Z,22.86
2017-03-06T02:06:46.304Z,22.86
2017-03-06T02:07:57.052Z,22.77
2017-03-06T02:09:06.995Z,22.96
2017-03-06T02:10:16.576Z,22.86
2017-03-06T02:11:26.508Z,22.77
2017-03-06T02:12:36.781Z,22.86
2017-03-06T02:13:46.743Z,22.86
2017-03-06T02:14:57.491Z,22.86
2017-03-06T02:16:07.833Z,22.96
2017-03-06T02:17:18.159Z,22.86
2017-03-06T02:18:29.165Z,22.86
2017-03-06T02:19:39.500Z,22.77
2017-03-06T02:20:50.231Z,22.86
2017-03-06T02:22:00.592Z,22.86
2017-03-06T02:23:10.936Z,22.77
2017-03-06T02:24:21.532Z,22.86
2017-03-06T02:25:31.496Z,22.77
2017-03-06T02:26:41.836Z,22.77
2017-03-06T02:27:52.591Z,22.86
2017-03-06T02:29:03.322Z,22.86
2017-03-06T02:30:14.298Z,22.86
2017-03-06T02:31:25.075Z,22.86
2017-03-06T02:32:35.415Z,22.86
2017-03-06T02:33:46.150Z,22.77
2017-03-06T02:34:56.100Z,22.77
2017-03-06T02:36:06.700Z,22.86
2017-03-06T02:37:17.447Z,22.86
2017-03-06T02:38:27.391Z,22.86
2017-03-06T02:39:37.727Z,22.77
2017-03-06T02:40:47.306Z,22.77
2017-03-06T02:41:58.291Z,22.86
2017-03-06T02:43:08.633Z,22.77
2017-03-06T02:44:18.601Z,22.86
2017-03-06T02:45:29.331Z,22.77
2017-03-06T02:46:39.312Z,22.96
2017-03-06T02:47:50.310Z,22.96
2017-03-06T02:49:01.052Z,22.88
2017-03-06T02:50:10.985Z,22.77
2017-03-06T02:51:21.734Z,22.67
2017-03-06T02:52:32.470Z,22.96
2017-03-06T02:53:43.074Z,22.96
2017-03-06T02:54:53.014Z,22.86
2017-03-06T02:56:03.782Z,22.86
2017-03-06T02:57:14.511Z,22.96
2017-03-06T02:58:23.653Z,22.67
2017-03-06T02:59:34.287Z,22.96
2017-03-06T03:00:43.827Z,22.77
2017-03-06T03:01:53.762Z,22.86
2017-03-06T03:03:04.115Z,22.86
2017-03-06T03:04:13.669Z,22.86
2017-03-06T03:05:23.877Z,22.96
2017-03-06T03:06:34.594Z,22.86
2017-03-06T03:07:44.931Z,22.77
2017-03-06T03:08:55.711Z,22.96
2017-03-06T03:10:06.076Z,22.77
2017-03-06T03:11:15.088Z,22.77
2017-03-06T03:12:25.023Z,22.96
2017-03-06T03:13:35.782Z,22.86
2017-03-06T03:14:46.121Z,22.77
2017-03-06T03:15:56.453Z,22.77
2017-03-06T03:17:07.056Z,22.86
2017-03-06T03:18:16.995Z,22.96
2017-03-06T03:19:26.546Z,22.58
2017-03-06T03:20:36.505Z,22.96
2017-03-06T03:21:46.857Z,22.67
2017-03-06T03:22:57.451Z,22.77
2017-03-06T03:24:08.192Z,22.96
2017-03-06T03:25:18.944Z,22.86
2017-03-06T03:26:29.700Z,22.67
2017-03-06T03:27:38.893Z,22.58
2017-03-06T03:28:48.694Z,22.86
2017-03-06T03:29:59.034Z,22.86
2017-03-06T03:31:09.597Z,22.67
2017-03-06T03:32:20.351Z,22.86
2017-03-06T03:33:29.909Z,22.96
2017-03-06T03:34:40.110Z,22.96
2017-03-06T03:35:50.850Z,22.77
2017-03-06T03:37:01.201Z,22.77
2017-03-06T03:38:11.141Z,22.86
2017-03-06T03:39:20.700Z,22.86
2017-03-06T03:40:31.340Z,22.86
2017-03-06T03:41:42.117Z,22.58
2017-03-06T03:42:51.657Z,22.77
2017-03-06T03:44:02.012Z,22.86
2017-03-06T03:45:11.967Z,22.48
2017-03-06T03:46:22.621Z,22.67
2017-03-06T03:47:32.656Z,22.67
2017-03-06T03:48:42.606Z,22.58
2017-03-06T03:49:53.333Z,22.96
2017-03-06T03:51:04.057Z,22.86
2017-03-06T03:52:13.877Z,22.86
2017-03-06T03:53:23.485Z,22.77
2017-03-06T03:54:33.452Z,22.58
2017-03-06T03:55:43.404Z,22.77
2017-03-06T03:56:54.150Z,22.67
2017-03-06T03:58:04.795Z,22.86
2017-03-06T03:59:14.733Z,22.86
2017-03-06T04:00:25.471Z,22.86
2017-03-06T04:01:35.810Z,22.86
2017-03-06T04:02:46.152Z,22.77
2017-03-06T04:03:56.818Z,22.77
2017-03-06T04:05:06.754Z,22.77
2017-03-06T04:06:16.723Z,22.96
2017-03-06T04:07:26.652Z,22.86
2017-03-06T04:08:36.201Z,22.77
2017-03-06T04:09:46.800Z,22.77
2017-03-06T04:10:57.538Z,22.58
2017-03-06T04:12:07.094Z,22.77
2017-03-06T04:13:16.645Z,22.77
2017-03-06T04:14:26.598Z,22.67
2017-03-06T04:15:37.672Z,22.58
2017-03-06T04:16:47.652Z,22.58
2017-03-06T04:17:57.998Z,22.67
2017-03-06T04:19:08.345Z,22.67
2017-03-06T04:20:18.696Z,22.58
2017-03-06T04:21:29.280Z,22.67
2017-03-06T04:22:39.631Z,22.86
2017-03-06T04:23:50.358Z,22.67
2017-03-06T04:25:00.318Z,22.58
2017-03-06T04:26:10.677Z,22.67
2017-03-06T04:27:21.648Z,22.77
2017-03-06T04:28:31.983Z,22.67
2017-03-06T04:29:41.913Z,22.77
2017-03-06T04:30:52.251Z,22.86
2017-03-06T04:32:02.620Z,22.86
2017-03-06T04:33:13.218Z,22.86
2017-03-06T04:34:23.958Z,22.77
2017-03-06T04:35:33.906Z,22.86
2017-03-06T04:36:43.858Z,22.86
2017-03-06T04:37:54.569Z,22.86
2017-03-06T04:39:04.840Z,22.77
2017-03-06T04:40:15.583Z,22.86
2017-03-06T04:41:26.315Z,22.67
2017-03-06T04:42:36.674Z,22.96
2017-03-06T04:43:47.416Z,22.86
2017-03-06T04:44:58.062Z,22.77
2017-03-06T04:46:08.982Z,22.86
2017-03-06T04:47:18.946Z,22.86
2017-03-06T04:48:29.292Z,22.86
2017-03-06T04:49:39.661Z,22.77
2017-03-06T04:50:50.261Z,22.86
2017-03-06T04:52:00.598Z,22.86
2017-03-06T04:53:10.949Z,22.67
2017-03-06T04:54:21.289Z,22.77
2017-03-06T04:55:31.243Z,22.86
2017-03-06T04:56:41.836Z,22.67
2017-03-06T04:57:52.578Z,22.86
2017-03-06T04:59:03.306Z,22.96
2017-03-06T05:00:13.656Z,22.67
2017-03-06T05:01:23.672Z,22.67
2017-03-06T05:02:34.258Z,22.77
2017-03-06T05:03:44.991Z,22.77
2017-03-06T05:04:55.733Z,22.77
2017-03-06T05:06:05.712Z,22.67
2017-03-06T05:07:14.898Z,22.77
2017-03-06T05:08:24.683Z,22.67
2017-03-06T05:09:35.031Z,22.58
2017-03-06T05:10:45.768Z,22.48
2017-03-06T05:11:56.510Z,22.09
2017-03-06T05:13:07.250Z,22
2017-03-06T05:14:17.118Z,22.09
2017-03-06T05:15:27.497Z,22.19
2017-03-06T05:16:37.829Z,21.91
2017-03-06T05:17:48.176Z,21.81
2017-03-06T05:18:57.759Z,22
2017-03-06T05:20:08.001Z,22.19
2017-03-06T05:21:17.951Z,22.19
2017-03-06T05:22:28.699Z,22.29
2017-03-06T05:23:38.675Z,22.19
2017-03-06T05:24:49.442Z,22.19
2017-03-06T05:25:59.733Z,22.38
2017-03-06T05:27:10.486Z,22.38
2017-03-06T05:28:21.247Z,21.99
2017-03-06T05:29:31.599Z,22
2017-03-06T05:30:41.566Z,21.91
2017-03-06T05:31:52.549Z,21.91
2017-03-06T05:33:02.508Z,21.91
2017-03-06T05:34:12.882Z,21.81
2017-03-06T05:35:23.221Z,22
2017-03-06T05:36:33.558Z,22.09
2017-03-06T05:37:44.210Z,22
2017-03-06T05:38:54.587Z,22
2017-03-06T05:40:04.559Z,21.91
2017-03-06T05:41:14.896Z,21.91
2017-03-06T05:42:25.631Z,21.71
2017-03-06T05:43:35.908Z,21.61
2017-03-06T05:44:46.254Z,21.71
2017-03-06T05:45:56.603Z,21.71
2017-03-06T05:47:07.326Z,21.61
2017-03-06T05:48:17.646Z,21.81
2017-03-06T05:49:28.655Z,21.71
2017-03-06T05:50:39.013Z,21.71
2017-03-06T05:51:49.391Z,21.52
2017-03-06T05:52:59.746Z,21.52
2017-03-06T05:54:10.127Z,21.52
2017-03-06T05:55:20.722Z,21.61
2017-03-06T05:56:31.055Z,21.52
2017-03-06T05:57:41.410Z,21.52
2017-03-06T05:58:50.972Z,21.61
2017-03-06T06:00:01.314Z,21.81
2017-03-06T06:01:12.350Z,21.52
2017-03-06T06:02:22.712Z,21.71
2017-03-06T06:03:32.665Z,21.81
2017-03-06T06:04:42.616Z,21.61
2017-03-06T06:05:53.362Z,21.71
2017-03-06T06:07:03.995Z,21.52
2017-03-06T06:08:14.341Z,21.52
2017-03-06T06:09:24.699Z,21.91
2017-03-06T06:10:35.039Z,21.71
2017-03-06T06:11:45.392Z,21.61
2017-03-06T06:12:55.577Z,21.52
2017-03-06T06:14:06.325Z,21.71
2017-03-06T06:15:16.673Z,21.61
2017-03-06T06:16:27.010Z,21.71
2017-03-06T06:17:36.562Z,21.71
2017-03-06T06:18:46.831Z,21.42
2017-03-06T06:19:56.789Z,21.81
2017-03-06T06:21:07.554Z,21.91
2017-03-06T06:22:17.919Z,21.71
2017-03-06T06:23:28.507Z,21.42
2017-03-06T06:24:38.754Z,21.61
2017-03-06T06:25:48.730Z,21.61
2017-03-06T06:26:59.473Z,21.52
2017-03-06T06:28:09.443Z,21.52
2017-03-06T06:29:20.168Z,21.52
2017-03-06T06:30:31.215Z,21.52
2017-03-06T06:31:41.177Z,21.52
2017-03-06T06:32:51.532Z,21.61
2017-03-06T06:34:01.862Z,21.71
2017-03-06T06:35:12.585Z,21.52
2017-03-06T06:36:23.183Z,21.52
2017-03-06T06:37:33.523Z,21.52
2017-03-06T06:38:44.280Z,21.42
2017-03-06T06:39:55.029Z,21.52
2017-03-06T06:41:05.783Z,21.61
2017-03-06T06:42:16.437Z,21.42
2017-03-06T06:43:26.655Z,21.61
2017-03-06T06:44:37.016Z,21.42
2017-03-06T06:45:47.380Z,21.42
2017-03-06T06:46:58.173Z,21.42
2017-03-06T06:48:08.915Z,21.61
2017-03-06T06:49:19.684Z,21.61
2017-03-06T06:50:30.463Z,21.42
2017-03-06T06:51:40.812Z,21.42
2017-03-06T06:52:51.544Z,21.42
2017-03-06T06:54:01.788Z,21.33
2017-03-06T06:55:12.588Z,21.42
2017-03-06T06:56:22.942Z,21.52
2017-03-06T06:57:32.546Z,21.42
2017-03-06T06:58:43.333Z,21.42
2017-03-06T06:59:53.937Z,21.71
2017-03-06T07:01:03.914Z,21.52
2017-03-06T07:02:13.865Z,21.71
2017-03-06T07:03:24.242Z,21.71
2017-03-06T07:04:34.653Z,21.52
2017-03-06T07:05:45.331Z,21.71
2017-03-06T07:06:55.666Z,21.81
2017-03-06T07:08:05.622Z,21.52
2017-03-06T07:09:16.358Z,21.61
2017-03-06T07:10:26.342Z,21.61
2017-03-06T07:11:36.159Z,21.81
2017-03-06T07:12:46.889Z,21.91
2017-03-06T07:13:56.495Z,22
2017-03-06T07:15:06.838Z,21.81
2017-03-06T07:16:16.780Z,21.91
2017-03-06T07:17:27.439Z,21.81
2017-03-06T07:18:37.004Z,22
2017-03-06T07:19:46.979Z,21.91
2017-03-06T07:20:56.960Z,22
2017-03-06T07:22:06.927Z,21.91
2017-03-06T07:23:17.955Z,21.81
2017-03-06T07:24:27.916Z,21.71
2017-03-06T07:25:38.279Z,21.71
2017-03-06T07:26:48.680Z,21.71
2017-03-06T07:27:59.042Z,21.91
2017-03-06T07:29:09.409Z,21.71
2017-03-06T07:30:19.370Z,21.81
2017-03-06T07:31:29.733Z,22.09
2017-03-06T07:32:40.108Z,22
2017-03-06T07:33:51.122Z,22
2017-03-06T07:35:01.876Z,22.09
2017-03-06T07:36:12.880Z,22
2017-03-06T07:37:23.234Z,22
2017-03-06T07:38:33.301Z,22
2017-03-06T07:39:44.328Z,22
2017-03-06T07:40:55.110Z,22
2017-03-06T07:42:05.569Z,21.91
2017-03-06T07:43:16.741Z,21.91
2017-03-06T07:44:27.107Z,22.09
2017-03-06T07:45:38.171Z,22.09
2017-03-06T07:46:48.547Z,22.11
2017-03-06T07:47:59.356Z,22.09
2017-03-06T07:49:10.120Z,22.19
2017-03-06T07:50:20.850Z,22.09
2017-03-06T07:51:31.142Z,22.3
2017-03-06T07:52:41.119Z,22.3
2017-03-06T07:53:51.897Z,22.39
2017-03-06T07:55:02.285Z,22.11
2017-03-06T07:56:12.665Z,22.11
2017-03-06T07:57:22.921Z,22.01
2017-03-06T07:58:33.283Z,22.09
2017-03-06T07:59:43.345Z,21.92
2017-03-06T08:00:54.111Z,21.92
2017-03-06T08:02:04.463Z,21.92
2017-03-06T08:03:14.686Z,21.92
2017-03-06T08:04:25.432Z,21.81
2017-03-06T08:05:36.175Z,21.92
2017-03-06T08:06:46.966Z,21.72
2017-03-06T08:07:57.782Z,21.92
2017-03-06T08:09:08.847Z,21.92
2017-03-06T08:10:19.619Z,22.01
2017-03-06T08:11:29.988Z,22.11
2017-03-06T08:12:40.768Z,21.92
2017-03-06T08:13:50.709Z,21.92
2017-03-06T08:15:01.648Z,22.01
2017-03-06T08:16:12.163Z,21.82
2017-03-06T08:17:21.608Z,21.82
2017-03-06T08:18:32.409Z,22.3
2017-03-06T08:19:43.171Z,21.62
2017-03-06T08:20:53.113Z,21.62
2017-03-06T08:22:03.514Z,21.72
2017-03-06T08:23:13.903Z,21.72
2017-03-06T08:24:24.257Z,21.72
2017-03-06T08:25:34.629Z,21.82
2017-03-06T08:26:44.863Z,21.44
2017-03-06T08:27:54.854Z,21.72
2017-03-06T08:29:05.625Z,21.82
2017-03-06T08:30:15.600Z,21.72
2017-03-06T08:31:26.380Z,21.72
2017-03-06T08:32:37.005Z,21.62
2017-03-06T08:33:47.378Z,21.53
2017-03-06T08:34:57.762Z,21.72
2017-03-06T08:36:08.152Z,21.72
2017-03-06T08:37:18.905Z,21.62
2017-03-06T08:38:29.557Z,21.72
2017-03-06T08:39:39.916Z,22.11
2017-03-06T08:40:50.668Z,21.92
2017-03-06T08:42:01.433Z,21.92
2017-03-06T08:43:11.791Z,21.92
2017-03-06T08:44:22.806Z,22.01
2017-03-06T08:45:32.787Z,22.01
2017-03-06T08:46:42.398Z,22.12
2017-03-06T08:47:52.748Z,22.01
2017-03-06T08:49:02.317Z,21.92
2017-03-06T08:50:12.924Z,21.73
2017-03-06T08:51:23.685Z,21.83
2017-03-06T08:52:33.637Z,21.83
2017-03-06T08:53:44.434Z,22.02
2017-03-06T08:54:55.346Z,22.31
2017-03-06T08:56:06.456Z,22.12
2017-03-06T08:57:17.238Z,22.5
2017-03-06T08:58:27.641Z,22.41
2017-03-06T08:59:38.389Z,22.5
2017-03-06T09:00:49.147Z,22.5
2017-03-06T09:02:00.157Z,22.6
2017-03-06T09:03:10.934Z,22.5
2017-03-06T09:04:21.829Z,22.5
2017-03-06T09:05:32.772Z,22.6
2017-03-06T09:06:43.561Z,22.89
2017-03-06T09:07:54.239Z,22.69
2017-03-06T09:09:04.271Z,22.79
2017-03-06T09:10:14.923Z,22.6
2017-03-06T09:11:25.362Z,22.79
2017-03-06T09:12:36.141Z,22.6
2017-03-06T09:13:46.774Z,22.89
2017-03-06T09:14:57.612Z,22.79
2017-03-06T09:16:08.414Z,22.79
2017-03-06T09:17:19.185Z,22.99
2017-03-06T09:18:29.554Z,22.9
2017-03-06T09:19:40.219Z,22.89
2017-03-06T09:20:50.606Z,22.89
2017-03-06T09:22:00.994Z,22.99
2017-03-06T09:23:11.354Z,22.9
2017-03-06T09:24:22.407Z,22.89
2017-03-06T09:25:33.029Z,23.08
2017-03-06T09:26:43.650Z,22.99
2017-03-06T09:27:53.630Z,23.09
2017-03-06T09:29:04.395Z,23.18
2017-03-06T09:30:14.776Z,22.99
2017-03-06T09:31:25.813Z,23.08
2017-03-06T09:32:36.189Z,23.09
2017-03-06T09:33:46.543Z,23.09
2017-03-06T09:34:56.530Z,22.99
2017-03-06T09:36:06.902Z,23.09
2017-03-06T09:37:17.916Z,23.09
2017-03-06T09:38:28.719Z,23.09
2017-03-06T09:39:39.509Z,23.09
2017-03-06T09:40:50.271Z,22.99
2017-03-06T09:42:00.257Z,23.09
2017-03-06T09:43:11.281Z,23.09
2017-03-06T09:44:22.054Z,23.09
2017-03-06T09:45:32.828Z,22.99
2017-03-06T09:46:43.193Z,23.38
2017-03-06T09:47:52.386Z,23.28
2017-03-06T09:49:03.477Z,23.47
2017-03-06T09:50:14.335Z,23.38
2017-03-06T09:51:24.744Z,23.38
2017-03-06T09:52:35.107Z,23.28
2017-03-06T09:53:45.912Z,23.09
2017-03-06T09:54:56.129Z,23.28
2017-03-06T09:56:06.524Z,23.47
2017-03-06T09:57:17.286Z,23.19
2017-03-06T09:58:26.517Z,23.47
2017-03-06T09:59:36.563Z,23.47
2017-03-06T10:00:47.237Z,23.67
2017-03-06T10:01:58.041Z,23.86
2017-03-06T10:03:09.077Z,23.86
2017-03-06T10:04:19.473Z,23.67
2017-03-06T10:05:29.845Z,23.19
2017-03-06T10:06:40.482Z,23.27
2017-03-06T10:07:50.841Z,23.28
2017-03-06T10:09:01.242Z,23.19
2017-03-06T10:10:12.021Z,23.28
2017-03-06T10:11:22.005Z,23.18
2017-03-06T10:12:32.402Z,23.27
2017-03-06T10:13:42.789Z,23.27
2017-03-06T10:14:53.224Z,23.27
2017-03-06T10:16:03.282Z,23.46
2017-03-06T10:17:14.018Z,22.99
2017-03-06T10:18:25.013Z,22.89
2017-03-06T10:19:34.988Z,22.99
2017-03-06T10:20:45.362Z,23.08
2017-03-06T10:21:55.719Z,23.08
2017-03-06T10:23:06.482Z,22.99
2017-03-06T10:24:16.710Z,22.99
2017-03-06T10:25:26.674Z,23.46
2017-03-06T10:26:36.650Z,23.66
2017-03-06T10:27:47.036Z,23.46
2017-03-06T10:28:57.827Z,23.37
2017-03-06T10:30:08.514Z,22.99
2017-03-06T10:31:19.297Z,23.18
2017-03-06T10:32:29.300Z,23.08
2017-03-06T10:33:40.062Z,22.99
2017-03-06T10:34:50.440Z,23.08
2017-03-06T10:36:01.105Z,23.08
2017-03-06T10:37:11.474Z,23.08
2017-03-06T10:38:21.423Z,23.08
2017-03-06T10:39:31.822Z,22.99
2017-03-06T10:40:42.602Z,23.18
2017-03-06T10:41:52.786Z,23.08
2017-03-06T10:43:03.144Z,22.99
2017-03-06T10:44:13.112Z,22.99
2017-03-06T10:45:23.968Z,23.08
2017-03-06T10:46:34.362Z,23.08
2017-03-06T10:47:44.193Z,23.18
2017-03-06T10:48:54.959Z,23.18
2017-03-06T10:50:05.686Z,23.08
2017-03-06T10:51:15.625Z,23.08
2017-03-06T10:52:25.966Z,23.18
2017-03-06T10:53:36.626Z,22.99
2017-03-06T10:54:47.347Z,23.18
2017-03-06T10:55:58.071Z,22.99
2017-03-06T10:57:08.428Z,23.18
2017-03-06T10:58:19.163Z,23.08
2017-03-06T10:59:29.419Z,23.08
2017-03-06T11:00:40.168Z,23.08
2017-03-06T11:01:50.928Z,22.99
2017-03-06T11:03:01.314Z,23.08
2017-03-06T11:04:11.275Z,22.89
2017-03-06T11:05:21.927Z,23.08
2017-03-06T11:06:31.879Z,22.99
2017-03-06T11:07:42.210Z,22.99
2017-03-06T11:08:52.146Z,23.18
2017-03-06T11:10:02.904Z,22.99
2017-03-06T11:11:13.918Z,23.18
2017-03-06T11:12:24.650Z,23.08
2017-03-06T11:13:34.209Z,23.08
2017-03-06T11:14:43.736Z,23.08
2017-03-06T11:15:54.468Z,23.09
2017-03-06T11:17:05.094Z,23.08
2017-03-06T11:18:14.630Z,23.08
2017-03-06T11:19:25.368Z,23.09
2017-03-06T11:20:36.093Z,23.09
2017-03-06T11:21:46.396Z,23.09
2017-03-06T11:22:57.096Z,22.99
2017-03-06T11:24:07.801Z,22.99
2017-03-06T11:25:17.766Z,23.09
2017-03-06T11:26:28.518Z,22.9
2017-03-06T11:27:39.233Z,23.09
2017-03-06T11:28:49.479Z,23.09
2017-03-06T11:29:59.810Z,23.09
2017-03-06T11:31:10.157Z,22.99
2017-03-06T11:32:20.095Z,23.09
2017-03-06T11:33:30.430Z,22.99
2017-03-06T11:34:41.112Z,23.09
2017-03-06T11:35:51.834Z,23.08
2017-03-06T11:37:02.222Z,22.99
2017-03-06T11:38:12.155Z,22.9
2017-03-06T11:39:22.515Z,22.99
2017-03-06T11:40:32.306Z,23.08
2017-03-06T11:41:41.907Z,22.99
2017-03-06T11:42:52.270Z,23.38
2017-03-06T11:44:03.020Z,23.09
2017-03-06T11:45:12.981Z,22.9
2017-03-06T11:46:24.018Z,23.47
2017-03-06T11:47:34.383Z,23.47
2017-03-06T11:48:43.921Z,23.57
2017-03-06T11:49:54.283Z,22.99
2017-03-06T11:51:05.010Z,22.99
2017-03-06T11:52:16.000Z,23.19
2017-03-06T11:53:26.308Z,23.09
2017-03-06T11:54:36.255Z,23.09
2017-03-06T11:55:46.598Z,22.99
2017-03-06T11:56:56.931Z,23.09
2017-03-06T11:58:06.711Z,23.09
2017-03-06T11:59:17.032Z,22.99
2017-03-06T12:00:27.751Z,23.09
2017-03-06T12:01:37.708Z,23.09
2017-03-06T12:02:47.642Z,22.99
2017-03-06T12:03:58.244Z,23.09
2017-03-06T12:05:08.586Z,23.09
2017-03-06T12:06:18.933Z,23.09
2017-03-06T12:07:28.869Z,23.09
2017-03-06T12:08:39.181Z,22.99
2017-03-06T12:09:49.474Z,22.99
2017-03-06T12:10:59.807Z,23.09
2017-03-06T12:12:10.517Z,22.99
2017-03-06T12:13:20.877Z,23.19
2017-03-06T12:14:31.218Z,22.99
2017-03-06T12:15:41.051Z,23.09
2017-03-06T12:16:51.369Z,23.09
2017-03-06T12:18:00.920Z,22.99
2017-03-06T12:19:10.443Z,22.99
2017-03-06T12:20:19.973Z,22.9
2017-03-06T12:21:30.547Z,23.19
2017-03-06T12:22:40.496Z,23.09
2017-03-06T12:23:51.218Z,22.9
2017-03-06T12:25:01.170Z,23.09
2017-03-06T12:26:11.509Z,22.9
2017-03-06T12:27:22.548Z,23.19
2017-03-06T12:28:32.893Z,23.47
2017-03-06T12:29:42.913Z,23.47
2017-03-06T12:30:53.233Z,22.99
2017-03-06T12:32:03.555Z,23.19
2017-03-06T12:33:13.805Z,22.99
2017-03-06T12:34:24.121Z,23.47
2017-03-06T12:35:34.076Z,23.47
2017-03-06T12:36:44.393Z,23.28
2017-03-06T12:37:54.716Z,23.38
2017-03-06T12:39:05.354Z,23.28
2017-03-06T12:40:14.903Z,23.28
2017-03-06T12:41:24.839Z,23.19
2017-03-06T12:42:35.193Z,23.09
2017-03-06T12:43:45.530Z,22.99
2017-03-06T12:44:54.990Z,23.47
2017-03-06T12:46:05.320Z,23.38
2017-03-06T12:47:15.669Z,23.28
2017-03-06T12:48:25.972Z,22.9
2017-03-06T12:49:36.308Z,22.99
2017-03-06T12:50:46.950Z,22.9
2017-03-06T12:51:57.667Z,23.09
2017-03-06T12:53:07.993Z,23.47
2017-03-06T12:54:18.338Z,22.99
2017-03-06T12:55:28.678Z,23.47
2017-03-06T12:56:38.946Z,23.47
2017-03-06T12:57:49.716Z,23.38
2017-03-06T12:59:00.063Z,23.38
2017-03-06T13:00:10.021Z,23.57
2017-03-06T13:01:19.566Z,23.47
2017-03-06T13:02:29.780Z,23.28
2017-03-06T13:03:39.718Z,23.28
2017-03-06T13:04:49.281Z,23.28
2017-03-06T13:05:59.211Z,23.28
2017-03-06T13:07:09.177Z,23.28
2017-03-06T13:08:20.216Z,23.28
2017-03-06T13:09:30.549Z,23.09
2017-03-06T13:10:40.893Z,23.09
2017-03-06T13:11:51.249Z,23.47
2017-03-06T13:13:01.999Z,23.67
2017-03-06T13:14:12.653Z,23.67
2017-03-06T13:15:22.994Z,23.77
2017-03-06T13:16:32.619Z,23.96
2017-03-06T13:17:43.143Z,23.85
2017-03-06T13:18:52.691Z,23.77
2017-03-06T13:20:03.365Z,23.85
2017-03-06T13:21:12.930Z,23.77
2017-03-06T13:22:22.877Z,23.85
2017-03-06T13:23:33.611Z,23.94
2017-03-06T13:24:43.970Z,23.75
2017-03-06T13:25:54.172Z,23.75
2017-03-06T13:27:04.890Z,23.85
2017-03-06T13:28:15.271Z,23.94
2017-03-06T13:29:25.685Z,24.04
2017-03-06T13:30:35.765Z,23.85
2017-03-06T13:31:46.767Z,24.23
2017-03-06T13:32:56.716Z,24.33
2017-03-06T13:34:06.319Z,24.33
2017-03-06T13:35:17.048Z,24.04
2017-03-06T13:36:27.405Z,24.33
2017-03-06T13:37:38.463Z,24.04
2017-03-06T13:38:48.412Z,24.14
2017-03-06T13:39:59.255Z,23.85
2017-03-06T13:41:09.605Z,24.04
2017-03-06T13:42:20.393Z,24.43
2017-03-06T13:43:31.019Z,24.33
2017-03-06T13:44:41.733Z,24.23
2017-03-06T13:45:52.083Z,24.14
2017-03-06T13:47:02.408Z,23.94
2017-03-06T13:48:12.974Z,24.04
2017-03-06T13:49:23.568Z,23.94
2017-03-06T13:50:33.551Z,24.52
2017-03-06T13:51:43.507Z,24.52
2017-03-06T13:52:53.841Z,24.52
2017-03-06T13:54:03.404Z,24.43
2017-03-06T13:55:14.841Z,24.43
2017-03-06T13:56:25.169Z,24.43
2017-03-06T13:57:34.731Z,24.52
2017-03-06T13:58:43.875Z,24.62
2017-03-06T13:59:53.392Z,24.43
2017-03-06T14:01:03.627Z,24.62
2017-03-06T14:02:13.575Z,24.43
2017-03-06T14:03:23.525Z,24.52
2017-03-06T14:04:33.487Z,24.62
2017-03-06T14:05:42.666Z,24.71
2017-03-06T14:06:53.295Z,24.43
2017-03-06T14:08:03.641Z,24.71
2017-03-06T14:09:14.369Z,24.62
2017-03-06T14:10:24.700Z,24.91
2017-03-06T14:11:35.043Z,24.71
2017-03-06T14:12:44.902Z,24.71
2017-03-06T14:13:55.231Z,24.71
2017-03-06T14:15:05.586Z,24.81
2017-03-06T14:16:15.616Z,24.71
2017-03-06T14:17:25.538Z,24.62
2017-03-06T14:18:35.767Z,24.91
2017-03-06T14:19:46.100Z,24.71
2017-03-06T14:20:56.057Z,24.91
2017-03-06T14:22:06.381Z,25.2
2017-03-06T14:23:15.944Z,25.2
2017-03-06T14:24:26.182Z,25.1
2017-03-06T14:25:36.115Z,25.2
2017-03-06T14:26:46.450Z,25.1
2017-03-06T14:27:56.785Z,25.1
2017-03-06T14:29:07.506Z,25.1
2017-03-06T14:30:18.129Z,25.1
2017-03-06T14:31:28.878Z,25.01
2017-03-06T14:32:39.232Z,24.81
2017-03-06T14:33:49.579Z,24.71
2017-03-06T14:34:59.537Z,24.81
2017-03-06T14:36:10.561Z,25.47
2017-03-06T14:37:21.324Z,25.1
2017-03-06T14:38:31.689Z,25.39
2017-03-06T14:39:42.462Z,25.29
2017-03-06T14:40:52.247Z,25.48
2017-03-06T14:42:02.497Z,25.48
2017-03-06T14:43:12.448Z,25.39
2017-03-06T14:44:22.434Z,25.48
2017-03-06T14:45:33.171Z,25.39
2017-03-06T14:46:42.449Z,25.39
2017-03-06T14:47:53.089Z,25.29
2017-03-06T14:49:02.640Z,25.39
2017-03-06T14:50:12.221Z,25.39
2017-03-06T14:51:22.955Z,25.29
2017-03-06T14:52:33.690Z,25.2
2017-03-06T14:53:43.960Z,25.29
2017-03-06T14:54:54.306Z,25.2
2017-03-06T14:56:04.245Z,25.2
2017-03-06T14:57:14.571Z,25.29
2017-03-06T14:58:24.925Z,25.58
2017-03-06T14:59:34.757Z,25.39
2017-03-06T15:00:45.116Z,25.39
2017-03-06T15:01:55.455Z,25.58
2017-03-06T15:03:05.793Z,25.58
2017-03-06T15:04:15.324Z,25.68
2017-03-06T15:05:25.577Z,25.68
2017-03-06T15:06:36.306Z,25.78
2017-03-06T15:07:46.239Z,26.06
2017-03-06T15:08:56.569Z,25.96